Terminal Aerodrome Forecast
Issued by NWS Sterling, VA

Home | Current Version | Previous Version | Text Only | Print | Product List | Glossary On
Versions: 1 2 3 4 5 6 7 8 9 10 11 12 13 14 15 16 17 18 19 20 21 22 23
338
FTUS41 KLWX 251138
TAFDCA
TAF
KDCA 251138Z 2512/2618 02006KT 1 1/2SM -DZ BR OVC004
     FM251400 35006KT 6SM BR BKN008 OVC015
     FM251700 33008KT P6SM BKN015 OVC050
     FM252200 33008G16KT P6SM SCT025 BKN050
     FM260200 32010G17KT P6SM SCT050 SCT250
     FM261700 32008KT P6SM SCT250=

USA.gov is the U.S. government's official web portal to all federal, state and local government web resources and services.